Time;durP1;ratioP1;P1;durP2;ratioP2;P2;SDS_P1;SDS_P2;PMS_P1;PMS_P2;Temp;Humidity;BMP_temperature;BMP_pressure;BME280_temperature;BME280_humidity;BME280_pressure;Samples;Min_cycle;Max_cycle;Signal;HPM_P1;HPM_P2
2023/04/10 00:02:04;;;;;;;46.60;41.70;;;5.10;99.90;;;;;;5028896;28;20251;-54
2023/04/10 00:04:32;;;;;;;79.47;58.40;;;5.10;99.90;;;;;;5029838;28;20295;-54
2023/04/10 00:07:00;;;;;;;88.70;49.37;;;5.10;99.90;;;;;;5019412;28;20210;-53
2023/04/10 00:09:28;;;;;;;65.60;47.17;;;5.00;99.90;;;;;;5028987;28;20241;-54
2023/04/10 00:11:57;;;;;;;43.17;38.87;;;5.00;99.90;;;;;;5029117;28;20271;-53
2023/04/10 00:14:25;;;;;;;55.00;40.80;;;5.00;99.90;;;;;;5027015;28;20225;-55
2023/04/10 00:16:53;;;;;;;78.40;51.93;;;5.00;99.90;;;;;;5028077;28;20212;-54
2023/04/10 00:19:22;;;;;;;81.43;53.43;;;5.00;99.90;;;;;;5029442;28;20588;-52
2023/04/10 00:21:50;;;;;;;66.97;38.83;;;4.90;99.90;;;;;;5029209;28;20217;-53
2023/04/10 00:24:18;;;;;;;129.17;69.90;;;4.90;99.90;;;;;;5029306;28;20242;-54
2023/04/10 00:26:46;;;;;;;43.10;35.27;;;4.90;99.90;;;;;;5029028;28;20237;-55
2023/04/10 00:29:14;;;;;;;45.33;32.27;;;4.90;99.90;;;;;;5023136;28;20246;-53
2023/04/10 00:31:42;;;;;;;28.73;25.33;;;4.80;99.90;;;;;;5029744;28;20636;-54
2023/04/10 00:34:11;;;;;;;40.03;35.80;;;4.80;99.90;;;;;;5023746;28;20222;-53
2023/04/10 00:36:40;;;;;;;53.57;42.43;;;4.80;99.90;;;;;;5029058;28;20209;-57
2023/04/10 00:39:08;;;;;;;87.50;62.40;;;4.80;99.90;;;;;;5028890;28;20229;-54
2023/04/10 00:41:36;;;;;;;62.93;43.77;;;4.80;99.90;;;;;;5029224;28;20388;-53
2023/04/10 00:44:04;;;;;;;41.70;33.97;;;4.70;99.90;;;;;;5029276;28;20297;-53
2023/04/10 00:46:34;;;;;;;42.03;26.37;;;4.70;99.90;;;;;;5028989;28;20606;-54
2023/04/10 00:49:02;;;;;;;32.57;29.07;;;4.70;99.90;;;;;;5028693;28;20219;-53
2023/04/10 00:51:30;;;;;;;50.80;37.20;;;4.70;99.90;;;;;;5028544;28;20747;-53
2023/04/10 00:54:01;;;;;;;91.07;62.60;;;4.70;99.90;;;;;;5028563;28;20230;-53
2023/04/10 00:56:30;;;;;;;141.70;60.93;;;4.70;99.90;;;;;;5027843;28;20748;-53
2023/04/10 00:58:59;;;;;;;36.80;28.33;;;4.70;99.90;;;;;;5028873;28;20203;-52
2023/04/10 01:01:27;;;;;;;78.10;62.67;;;4.70;99.90;;;;;;5028442;28;20580;-54
2023/04/10 01:03:55;;;;;;;53.53;29.63;;;4.70;99.90;;;;;;5028380;28;20643;-53
2023/04/10 01:06:35;;;;;;;62.53;45.70;;;4.70;99.90;;;;;;5028608;28;20225;-54
2023/04/10 01:09:11;;;;;;;89.27;60.50;;;4.70;99.90;;;;;;5028050;28;20735;-53
2023/04/10 01:11:51;;;;;;;99.40;60.93;;;4.60;99.90;;;;;;5028334;28;20293;-54
2023/04/10 01:14:30;;;;;;;635.70;179.80;;;4.60;99.90;;;;;;5027525;28;20300;-52
2023/04/10 01:17:06;;;;;;;66.70;46.30;;;4.50;99.90;;;;;;5025999;28;20225;-53
2023/04/10 01:19:59;;;;;;;79.80;66.60;;;4.50;99.90;;;;;;5021784;28;20358;-52
2023/04/10 01:22:34;;;;;;;55.40;35.43;;;4.50;99.90;;;;;;5028812;28;20229;-52
2023/04/10 01:25:23;;;;;;;103.37;67.03;;;4.40;99.90;;;;;;5028309;28;20213;-54
2023/04/10 01:28:07;;;;;;;35.10;26.30;;;4.40;99.90;;;;;;5020182;28;20301;-54
2023/04/10 01:30:37;;;;;;;51.73;33.07;;;4.40;99.90;;;;;;5025931;28;20206;-53
2023/04/10 01:33:09;;;;;;;70.60;50.53;;;4.30;99.90;;;;;;5028100;28;20789;-54
2023/04/10 01:35:39;;;;;;;75.83;65.83;;;4.30;99.90;;;;;;5028371;28;20309;-53
2023/04/10 01:38:08;;;;;;;58.53;45.63;;;4.30;99.90;;;;;;5028325;28;20585;-53
2023/04/10 01:40:41;;;;;;;31.53;28.30;;;4.30;99.90;;;;;;5024776;28;20276;-54
2023/04/10 01:43:11;;;;;;;97.33;54.67;;;4.20;99.90;;;;;;5024960;28;20337;-54
2023/04/10 01:45:42;;;;;;;125.67;56.63;;;4.20;99.90;;;;;;5028175;28;20293;-52
2023/04/10 01:48:11;;;;;;;31.27;23.27;;;4.20;99.90;;;;;;5028524;28;20295;-53
2023/04/10 01:50:39;;;;;;;74.73;41.67;;;4.10;99.90;;;;;;5027365;28;20210;-52
2023/04/10 01:53:08;;;;;;;45.93;41.03;;;4.10;99.90;;;;;;5028129;28;20234;-54
2023/04/10 01:55:38;;;;;;;40.67;33.13;;;4.10;99.90;;;;;;5027981;28;20312;-53
2023/04/10 01:58:13;;;;;;;29.93;26.83;;;4.10;99.90;;;;;;5028143;28;20317;-53
2023/04/10 02:00:43;;;;;;;81.17;72.53;;;4.10;99.90;;;;;;5016559;28;20243;-53
2023/04/10 02:03:11;;;;;;;44.43;32.80;;;4.10;99.90;;;;;;5022941;28;20258;-54
2023/04/10 02:05:52;;;;;;;40.00;33.57;;;4.10;99.90;;;;;;5028585;28;20205;-54
2023/04/10 02:08:26;;;;;;;35.57;21.97;;;4.10;99.90;;;;;;5027923;28;20220;-54
2023/04/10 02:11:02;;;;;;;54.23;40.43;;;4.00;99.90;;;;;;5020471;28;20222;-53
2023/04/10 02:13:32;;;;;;;62.63;51.80;;;4.00;99.90;;;;;;5023533;28;20263;-54
2023/04/10 02:16:06;;;;;;;32.47;28.20;;;4.00;99.90;;;;;;5024024;28;20277;-54
2023/04/10 02:18:36;;;;;;;75.43;52.17;;;4.00;99.90;;;;;;5033639;28;20783;-53
2023/04/10 02:21:05;;;;;;;221.40;96.30;;;3.90;99.90;;;;;;5024612;28;20241;-53
2023/04/10 02:23:33;;;;;;;43.33;38.73;;;3.90;99.90;;;;;;5027757;28;20317;-53
2023/04/10 02:26:07;;;;;;;87.50;77.90;;;4.00;99.90;;;;;;5029124;28;20304;-53
2023/04/10 02:28:37;;;;;;;67.63;59.43;;;4.00;99.90;;;;;;5032128;28;20236;-53
2023/04/10 02:31:07;;;;;;;64.23;54.37;;;4.00;99.90;;;;;;5031517;28;20639;-53
2023/04/10 02:33:35;;;;;;;62.87;47.23;;;3.90;99.90;;;;;;5019424;28;20229;-54
2023/04/10 02:36:03;;;;;;;94.53;83.37;;;3.90;99.90;;;;;;5030962;28;20738;-52
2023/04/10 02:38:31;;;;;;;81.53;63.33;;;3.90;99.90;;;;;;5031732;28;20213;-52
2023/04/10 02:40:59;;;;;;;51.87;42.53;;;3.90;99.90;;;;;;5031440;28;20614;-54
2023/04/10 02:43:28;;;;;;;66.63;55.20;;;3.90;99.90;;;;;;5031698;28;20252;-53
2023/04/10 02:45:56;;;;;;;48.57;34.43;;;3.90;99.90;;;;;;5031432;28;20207;-53
2023/04/10 02:48:25;;;;;;;50.37;40.20;;;3.90;99.90;;;;;;5031465;28;20906;-53
2023/04/10 02:50:57;;;;;;;52.60;36.10;;;3.80;99.90;;;;;;5031183;28;20296;-53
2023/04/10 02:53:25;;;;;;;50.70;39.37;;;3.80;99.90;;;;;;5030822;28;20260;-52
2023/04/10 02:55:54;;;;;;;51.37;40.03;;;3.70;99.90;;;;;;5031345;28;20317;-53
2023/04/10 02:58:22;;;;;;;60.13;51.53;;;3.70;99.90;;;;;;5031200;28;20671;-54
2023/04/10 03:00:51;;;;;;;50.93;45.80;;;3.70;99.90;;;;;;5031116;28;20214;-52
2023/04/10 03:03:19;;;;;;;62.63;48.43;;;3.70;99.90;;;;;;5020453;28;20234;-53
2023/04/10 03:05:49;;;;;;;74.80;41.83;;;3.70;99.90;;;;;;5026780;28;20253;-53
2023/04/10 03:08:18;;;;;;;71.90;52.70;;;3.60;99.90;;;;;;5031534;28;20260;-55
2023/04/10 03:10:48;;;;;;;37.07;20.63;;;3.70;99.90;;;;;;5030780;28;20228;-53
2023/04/10 03:13:16;;;;;;;40.97;31.33;;;3.70;99.90;;;;;;5032121;28;20322;-53
2023/04/10 03:15:44;;;;;;;130.03;80.40;;;3.70;99.90;;;;;;5043191;28;20219;-53
2023/04/10 03:18:12;;;;;;;53.40;40.33;;;3.60;99.90;;;;;;5030048;28;20235;-53
2023/04/10 03:20:40;;;;;;;36.93;30.23;;;3.60;99.90;;;;;;5030377;28;20708;-53
2023/04/10 03:23:13;;;;;;;46.50;32.77;;;3.60;99.90;;;;;;5028938;28;20234;-52
2023/04/10 03:25:41;;;;;;;52.73;47.20;;;3.50;99.90;;;;;;5030740;28;20295;-54
2023/04/10 03:28:09;;;;;;;39.17;34.07;;;3.50;99.90;;;;;;5021174;28;20206;-53
2023/04/10 03:30:37;;;;;;;56.97;41.60;;;3.50;99.90;;;;;;5027580;28;20210;-54
2023/04/10 03:33:05;;;;;;;32.00;27.27;;;3.50;99.90;;;;;;5016443;28;20761;-52
2023/04/10 03:35:33;;;;;;;74.03;63.93;;;3.50;99.90;;;;;;5030395;28;20213;-53
2023/04/10 03:38:01;;;;;;;63.67;55.10;;;3.50;99.90;;;;;;5029302;28;20295;-53
2023/04/10 03:40:33;;;;;;;76.70;61.40;;;3.50;99.90;;;;;;5030355;28;20765;-53
2023/04/10 03:43:01;;;;;;;57.97;35.93;;;3.50;99.90;;;;;;5030131;28;20601;-54
2023/04/10 03:45:29;;;;;;;34.63;26.90;;;3.50;99.90;;;;;;5030281;28;20747;-55
2023/04/10 03:47:57;;;;;;;51.20;37.50;;;3.50;99.90;;;;;;5030150;28;20230;-54
2023/04/10 03:50:25;;;;;;;61.07;43.43;;;3.50;99.90;;;;;;5029807;28;20231;-53
2023/04/10 03:52:53;;;;;;;75.17;44.07;;;3.50;99.90;;;;;;5030530;28;20261;-53
2023/04/10 03:55:21;;;;;;;53.00;32.97;;;3.40;99.90;;;;;;5036554;28;20285;-53
2023/04/10 03:57:50;;;;;;;44.30;33.57;;;3.50;99.90;;;;;;5030149;28;20270;-52
2023/04/10 04:00:20;;;;;;;63.60;53.53;;;3.50;99.90;;;;;;5029648;28;20221;-54
2023/04/10 04:02:49;;;;;;;49.83;34.57;;;3.40;99.90;;;;;;5029807;28;20306;-53
2023/04/10 04:05:18;;;;;;;68.30;60.80;;;3.40;99.90;;;;;;5030198;28;20209;-54
2023/04/10 04:07:46;;;;;;;47.37;32.20;;;3.40;99.90;;;;;;5029422;28;20238;-52
2023/04/10 04:10:14;;;;;;;43.33;39.33;;;3.40;99.90;;;;;;5029767;28;20336;-53
2023/04/10 04:12:42;;;;;;;85.30;60.83;;;3.40;99.90;;;;;;5023562;28;20287;-53
2023/04/10 04:15:11;;;;;;;69.10;53.90;;;3.40;99.90;;;;;;5029602;28;20298;-52
2023/04/10 04:17:39;;;;;;;80.00;45.90;;;3.40;99.90;;;;;;5029458;28;20843;-54
2023/04/10 04:20:09;;;;;;;28.70;25.57;;;3.40;99.90;;;;;;5029710;28;20277;-54
2023/04/10 04:22:37;;;;;;;80.63;67.23;;;3.40;99.90;;;;;;5021645;28;20237;-53
2023/04/10 04:25:09;;;;;;;64.80;38.17;;;3.30;99.90;;;;;;5028595;28;20210;-53
2023/04/10 04:27:37;;;;;;;43.30;28.87;;;3.30;99.90;;;;;;5029618;28;20288;-53
2023/04/10 04:30:06;;;;;;;32.43;24.60;;;3.30;99.90;;;;;;5029283;28;20295;-53
2023/04/10 04:32:36;;;;;;;30.87;22.33;;;3.30;99.90;;;;;;5029524;28;20282;-52
2023/04/10 04:35:04;;;;;;;60.23;52.67;;;3.30;99.90;;;;;;5026042;28;20212;-52
2023/04/10 04:37:32;;;;;;;37.47;29.17;;;3.30;99.90;;;;;;5029547;28;20233;-53
2023/04/10 04:40:01;;;;;;;89.03;67.70;;;3.30;99.90;;;;;;5029327;28;20243;-53
2023/04/10 04:42:29;;;;;;;61.57;48.60;;;3.30;99.90;;;;;;5028961;28;20257;-53
2023/04/10 04:44:57;;;;;;;52.47;38.80;;;3.30;99.90;;;;;;5029335;28;20212;-53
2023/04/10 04:47:25;;;;;;;96.47;52.77;;;3.30;99.90;;;;;;5029076;28;20354;-54
2023/04/10 04:49:55;;;;;;;85.97;63.87;;;3.40;99.90;;;;;;5028899;28;20225;-53
2023/04/10 04:52:24;;;;;;;77.20;59.50;;;3.40;99.90;;;;;;5028496;28;20747;-53
2023/04/10 04:54:52;;;;;;;60.03;45.43;;;3.30;99.90;;;;;;5020269;28;20250;-53
2023/04/10 04:57:20;;;;;;;53.00;36.23;;;3.40;99.90;;;;;;5024377;28;20324;-53
2023/04/10 04:59:48;;;;;;;76.57;59.17;;;3.50;99.90;;;;;;5028477;28;20207;-53
2023/04/10 05:02:17;;;;;;;70.67;49.83;;;3.50;99.90;;;;;;5027203;28;20294;-53
2023/04/10 05:04:45;;;;;;;85.70;58.70;;;3.50;99.90;;;;;;5015392;28;20223;-53
2023/04/10 05:07:15;;;;;;;70.63;46.77;;;3.50;99.90;;;;;;5028802;28;20211;-53
2023/04/10 05:09:43;;;;;;;79.10;52.57;;;3.60;99.90;;;;;;5028391;28;20211;-54
2023/04/10 05:12:11;;;;;;;65.90;46.87;;;3.60;99.90;;;;;;5028687;28;20871;-54
2023/04/10 05:14:39;;;;;;;42.47;33.33;;;3.70;99.90;;;;;;5028085;28;20211;-54
2023/04/10 05:17:07;;;;;;;70.07;50.70;;;4.00;99.90;;;;;;5018671;28;20254;-53
2023/04/10 05:19:35;;;;;;;48.47;32.63;;;4.20;99.90;;;;;;5028050;28;20654;-53
2023/04/10 05:22:03;;;;;;;39.13;29.80;;;4.30;99.90;;;;;;5028705;28;20300;-53
2023/04/10 05:24:32;;;;;;;50.13;40.83;;;4.30;99.90;;;;;;5028659;28;20659;-53
2023/04/10 05:27:00;;;;;;;34.83;28.77;;;4.50;99.90;;;;;;5028556;28;20289;-54
2023/04/10 05:29:28;;;;;;;93.53;43.73;;;4.70;99.90;;;;;;5028647;28;20302;-53
2023/04/10 05:31:56;;;;;;;81.47;52.10;;;4.90;99.90;;;;;;5027671;28;20206;-53
2023/04/10 05:34:24;;;;;;;51.60;38.13;;;5.00;99.90;;;;;;5023531;28;20249;-53
2023/04/10 05:36:52;;;;;;;119.77;75.67;;;5.10;99.90;;;;;;5024629;28;20212;-54
2023/04/10 05:39:23;;;;;;;56.50;45.97;;;5.20;99.90;;;;;;5028035;28;20296;-53
2023/04/10 05:41:52;;;;;;;55.43;40.67;;;5.30;99.90;;;;;;5028128;28;20207;-54
2023/04/10 05:44:20;;;;;;;71.07;43.07;;;5.60;99.90;;;;;;5028197;28;20283;-53
2023/04/10 05:46:48;;;;;;;43.63;34.77;;;5.80;99.90;;;;;;5028058;28;20856;-53
2023/04/10 05:49:16;;;;;;;253.53;106.37;;;5.90;99.90;;;;;;5022969;28;20246;-53
2023/04/10 05:51:49;;;;;;;322.03;143.33;;;5.90;99.90;;;;;;5028355;28;20297;-54
2023/04/10 05:54:17;;;;;;;456.87;212.27;;;6.10;99.90;;;;;;5014888;28;20773;-54
2023/04/10 05:56:45;;;;;;;181.40;114.93;;;6.20;99.90;;;;;;5028237;28;20203;-53
2023/04/10 05:59:14;;;;;;;544.23;198.87;;;6.40;99.90;;;;;;5027930;28;20338;-54
2023/04/10 06:01:42;;;;;;;594.93;333.47;;;6.70;99.90;;;;;;5030673;28;20740;-52
2023/04/10 06:04:10;;;;;;;1314.97;402.40;;;6.90;99.90;;;;;;5032232;28;20222;-53
2023/04/10 06:06:39;;;;;;;1657.07;565.67;;;7.00;99.90;;;;;;5032116;28;20236;-53
2023/04/10 06:09:07;;;;;;;1351.30;381.90;;;7.20;99.90;;;;;;5031652;28;20213;-54
2023/04/10 06:11:35;;;;;;;1955.80;679.83;;;7.20;99.90;;;;;;5025084;28;20792;-54
2023/04/10 06:14:03;;;;;;;1262.63;371.93;;;7.20;99.90;;;;;;5031297;28;20316;-54
2023/04/10 06:16:33;;;;;;;1999.90;620.73;;;7.30;99.90;;;;;;5031958;28;20300;-54
2023/04/10 06:19:01;;;;;;;1999.90;884.57;;;7.70;99.90;;;;;;5032068;28;20225;-54
2023/04/10 06:21:29;;;;;;;1999.90;857.30;;;7.90;99.90;;;;;;5031445;28;20210;-54
2023/04/10 06:23:57;;;;;;;1999.90;605.27;;;8.20;99.90;;;;;;5028756;28;20308;-54
2023/04/10 06:26:25;;;;;;;1999.90;732.50;;;8.30;99.90;;;;;;5031923;28;20293;-54
2023/04/10 06:28:53;;;;;;;1999.90;878.63;;;8.50;99.90;;;;;;5031837;28;20295;-53
2023/04/10 06:31:22;;;;;;;1999.90;999.90;;;8.70;99.90;;;;;;5031905;28;20202;-54
2023/04/10 06:33:51;;;;;;;1999.90;848.17;;;9.10;99.90;;;;;;5031600;28;20248;-54
2023/04/10 06:36:19;;;;;;;1999.90;999.90;;;9.30;99.90;;;;;;5019290;28;20250;-53
2023/04/10 06:38:47;;;;;;;1999.90;951.47;;;9.80;99.90;;;;;;5031655;28;20309;-53
2023/04/10 06:41:15;;;;;;;1999.90;967.47;;;10.10;99.90;;;;;;5031549;28;20297;-54
2023/04/10 06:43:44;;;;;;;1999.90;971.47;;;10.20;99.90;;;;;;5031496;28;20704;-53
2023/04/10 06:46:13;;;;;;;1999.90;932.13;;;10.40;99.90;;;;;;5031130;28;20401;-53
2023/04/10 06:48:41;;;;;;;1999.90;934.33;;;10.60;99.90;;;;;;5031933;28;20214;-54
2023/04/10 06:51:10;;;;;;;1999.90;975.53;;;10.70;99.90;;;;;;5031488;28;20300;-53
2023/04/10 06:53:38;;;;;;;1999.90;999.90;;;10.60;99.90;;;;;;5031529;28;20258;-53
2023/04/10 06:56:07;;;;;;;1999.90;999.90;;;10.50;99.90;;;;;;5031358;28;20290;-54
2023/04/10 06:58:35;;;;;;;1999.90;936.27;;;10.40;99.90;;;;;;5031361;28;20313;-54
2023/04/10 07:01:03;;;;;;;1999.90;995.03;;;10.40;99.90;;;;;;5031335;28;20253;-54
2023/04/10 07:03:32;;;;;;;1999.90;919.83;;;10.70;99.90;;;;;;5030800;28;20281;-53
2023/04/10 07:06:01;;;;;;;1999.90;914.20;;;11.10;99.90;;;;;;5023919;28;20353;-53
2023/04/10 07:08:31;;;;;;;1999.90;997.97;;;11.20;99.90;;;;;;5030070;28;20564;-53
2023/04/10 07:10:59;;;;;;;1999.90;965.40;;;11.30;99.90;;;;;;5030897;28;20256;-53
2023/04/10 07:13:27;;;;;;;1999.90;999.90;;;11.30;99.90;;;;;;5030726;28;20240;-54
2023/04/10 07:15:55;;;;;;;1999.90;999.90;;;11.30;99.90;;;;;;5030733;28;20740;-53
2023/04/10 07:18:23;;;;;;;1999.90;999.90;;;11.30;99.90;;;;;;5022796;28;20242;-54
2023/04/10 07:20:52;;;;;;;1999.90;999.90;;;11.30;99.90;;;;;;5030764;28;20236;-55
2023/04/10 07:23:21;;;;;;;1999.90;999.90;;;11.50;99.90;;;;;;5030705;28;20226;-53
2023/04/10 07:25:51;;;;;;;1999.90;999.90;;;11.70;99.90;;;;;;5030826;28;20210;-53
2023/04/10 07:28:19;;;;;;;1999.90;999.90;;;11.80;99.90;;;;;;5031111;28;20206;-53
2023/04/10 07:30:47;;;;;;;1999.90;999.90;;;11.90;99.90;;;;;;5030057;28;20203;-53
2023/04/10 07:33:15;;;;;;;1999.90;999.90;;;12.10;99.90;;;;;;5033536;28;20939;-53
2023/04/10 07:35:44;;;;;;;1999.90;999.90;;;12.40;99.90;;;;;;5038588;28;20590;-54
2023/04/10 07:38:13;;;;;;;1999.90;999.90;;;12.60;99.90;;;;;;5029187;28;20248;-54
2023/04/10 07:40:41;;;;;;;1999.90;999.90;;;12.80;99.90;;;;;;5030096;28;20244;-54
2023/04/10 07:43:10;;;;;;;1999.90;999.90;;;13.10;99.90;;;;;;5030393;28;20309;-54
2023/04/10 07:45:38;;;;;;;1999.90;999.90;;;13.00;99.90;;;;;;5024627;28;20207;-53
2023/04/10 07:48:06;;;;;;;1999.90;999.90;;;13.20;99.90;;;;;;5026963;28;20219;-54
2023/04/10 07:50:35;;;;;;;1999.90;999.90;;;13.30;99.90;;;;;;5030578;28;20236;-53
2023/04/10 07:53:06;;;;;;;1999.90;999.90;;;13.40;99.90;;;;;;5030060;28;20321;-53
2023/04/10 07:55:38;;;;;;;1999.90;999.90;;;13.50;99.90;;;;;;5029784;28;20217;-54
2023/04/10 07:58:06;;;;;;;1999.90;999.90;;;13.60;99.90;;;;;;5030040;28;20212;-54
2023/04/10 08:00:35;;;;;;;1999.90;999.90;;;13.70;99.90;;;;;;5028411;28;20234;-54
2023/04/10 08:03:04;;;;;;;1999.90;999.90;;;13.50;99.90;;;;;;5029346;28;20631;-53
2023/04/10 08:05:33;;;;;;;1999.90;999.90;;;13.40;99.90;;;;;;5029838;28;20284;-54
2023/04/10 08:08:01;;;;;;;1999.90;999.90;;;13.40;99.90;;;;;;5029904;28;20639;-54
2023/04/10 08:10:29;;;;;;;1999.90;999.90;;;13.30;99.90;;;;;;5029403;28;20281;-54
2023/04/10 08:12:57;;;;;;;1999.90;999.90;;;13.20;99.90;;;;;;5029977;28;20317;-52
2023/04/10 08:15:25;;;;;;;1999.90;999.90;;;13.20;99.90;;;;;;5019481;28;20289;-53
2023/04/10 08:17:55;;;;;;;1999.90;999.90;;;13.20;99.90;;;;;;5029594;28;20673;-53
2023/04/10 08:20:23;;;;;;;1999.90;999.90;;;13.10;99.90;;;;;;5025834;28;20230;-54
2023/04/10 08:22:51;;;;;;;1999.90;995.60;;;13.10;99.90;;;;;;5025864;28;20288;-53
2023/04/10 08:25:19;;;;;;;1999.90;999.90;;;13.20;99.90;;;;;;5021492;28;20296;-52
2023/04/10 08:27:47;;;;;;;1999.90;999.90;;;13.30;99.90;;;;;;5024239;28;20758;-54
2023/04/10 08:30:15;;;;;;;1999.90;999.90;;;13.30;99.90;;;;;;5026833;28;20210;-55
2023/04/10 08:32:43;;;;;;;1999.90;999.90;;;13.30;99.90;;;;;;5027335;28;20321;-54
2023/04/10 08:35:12;;;;;;;1999.90;999.90;;;13.40;99.90;;;;;;5028561;28;20234;-55
2023/04/10 08:37:40;;;;;;;1999.90;999.90;;;13.40;99.90;;;;;;5029305;28;20242;-55
2023/04/10 08:40:14;;;;;;;1999.90;999.90;;;13.40;99.90;;;;;;5028860;28;20718;-55
2023/04/10 08:42:42;;;;;;;1999.90;999.90;;;13.40;99.90;;;;;;5014417;28;20225;-54
2023/04/10 08:45:11;;;;;;;1999.90;999.90;;;13.40;99.90;;;;;;5027620;28;20680;-54
2023/04/10 08:47:41;;;;;;;1999.90;999.90;;;13.30;99.90;;;;;;5028381;28;20206;-54
2023/04/10 08:50:13;;;;;;;1999.90;999.90;;;13.40;99.90;;;;;;5026311;28;20198;-54
2023/04/10 08:52:45;;;;;;;1999.90;999.90;;;13.40;99.90;;;;;;5029220;28;20296;-53
2023/04/10 08:55:13;;;;;;;1999.90;999.90;;;13.50;99.90;;;;;;5028452;28;20301;-54
2023/04/10 08:57:42;;;;;;;1999.90;999.90;;;13.50;99.90;;;;;;5027779;28;20229;-54
2023/04/10 09:00:25;;;;;;;1999.90;999.90;;;13.60;99.90;;;;;;5025561;28;20704;-56
2023/04/10 09:02:56;;;;;;;1999.90;999.90;;;13.70;99.90;;;;;;5018801;28;20264;-54
2023/04/10 09:05:27;;;;;;;1999.90;999.90;;;13.80;99.90;;;;;;5024433;28;20293;-55
2023/04/10 09:07:55;;;;;;;1999.90;999.90;;;13.80;99.90;;;;;;5036802;28;20639;-54
2023/04/10 09:10:23;;;;;;;1999.90;999.90;;;13.80;99.90;;;;;;5027697;28;20237;-54
2023/04/10 09:12:52;;;;;;;1999.90;999.90;;;13.80;99.90;;;;;;5028327;28;20317;-54
2023/04/10 09:15:20;;;;;;;1999.90;999.90;;;13.80;99.90;;;;;;5028234;28;20214;-55
2023/04/10 09:17:56;;;;;;;1999.90;999.90;;;13.80;99.90;;;;;;5028308;28;20720;-54
2023/04/10 09:20:28;;;;;;;1999.90;999.90;;;13.90;99.90;;;;;;5028118;28;20602;-55
2023/04/10 09:22:57;;;;;;;1999.90;999.90;;;14.00;99.90;;;;;;5028363;28;20263;-54
2023/04/10 09:25:33;;;;;;;1999.90;999.90;;;14.00;99.90;;;;;;5027982;28;20870;-55
2023/04/10 09:28:06;;;;;;;1999.90;999.90;;;14.10;99.90;;;;;;5027912;28;20209;-53
2023/04/10 09:30:36;;;;;;;1999.90;999.90;;;14.30;99.90;;;;;;5017848;28;20222;-56
2023/04/10 09:33:21;;;;;;;1999.90;999.90;;;14.20;99.90;;;;;;5028451;28;20313;-55
2023/04/10 09:35:51;;;;;;;1999.90;999.90;;;14.20;99.90;;;;;;5027411;28;20229;-55
2023/04/10 09:38:20;;;;;;;1999.90;999.90;;;14.30;99.90;;;;;;5028276;28;20589;-55
2023/04/10 09:40:49;;;;;;;1999.90;999.90;;;14.30;99.90;;;;;;5027652;28;20710;-54
2023/04/10 09:43:22;;;;;;;1999.90;999.90;;;14.40;99.90;;;;;;5027927;28;20759;-56
2023/04/10 09:45:52;;;;;;;1999.90;999.90;;;14.60;99.90;;;;;;5036910;28;20658;-55
2023/04/10 09:48:21;;;;;;;1999.90;999.90;;;14.60;99.90;;;;;;5014937;28;20930;-54
2023/04/10 09:50:51;;;;;;;1999.90;999.90;;;14.60;99.90;;;;;;5028173;28;20264;-55
2023/04/10 09:53:21;;;;;;;1999.90;999.90;;;14.60;99.90;;;;;;5028255;28;20230;-55
2023/04/10 09:55:50;;;;;;;1999.90;999.90;;;14.60;99.90;;;;;;5028439;28;20210;-54
2023/04/10 09:58:18;;;;;;;1999.90;999.90;;;14.60;99.90;;;;;;5028021;28;20210;-55
2023/04/10 10:00:48;;;;;;;1999.90;999.90;;;14.70;99.90;;;;;;5028330;28;20238;-54
2023/04/10 10:03:17;;;;;;;1999.90;999.90;;;14.70;99.90;;;;;;5026232;28;20226;-55
2023/04/10 10:05:49;;;;;;;1999.90;999.90;;;14.70;99.90;;;;;;5028077;28;20217;-55
2023/04/10 10:08:18;;;;;;;1999.90;999.90;;;14.60;99.90;;;;;;5019180;28;20249;-54
2023/04/10 10:10:48;;;;;;;1999.90;999.90;;;14.60;99.90;;;;;;5028077;28;20210;-55
2023/04/10 10:13:21;;;;;;;1999.90;999.90;;;14.70;99.90;;;;;;5025047;28;20616;-54
2023/04/10 10:15:57;;;;;;;1999.90;999.90;;;14.70;99.90;;;;;;5022889;28;20704;-54
2023/04/10 10:18:31;;;;;;;1999.90;999.90;;;14.70;99.90;;;;;;5011524;28;20206;-54
2023/04/10 10:21:02;;;;;;;1999.90;999.90;;;14.80;99.90;;;;;;5027845;28;20785;-55
2023/04/10 10:23:33;;;;;;;1999.90;999.90;;;14.70;99.90;;;;;;5026970;28;20226;-54
2023/04/10 10:26:04;;;;;;;1999.90;999.90;;;14.80;99.90;;;;;;5027201;28;20202;-54
2023/04/10 10:28:33;;;;;;;1999.90;999.90;;;14.80;99.90;;;;;;5021436;28;20234;-54
2023/04/10 10:31:03;;;;;;;1999.90;999.90;;;14.90;99.90;;;;;;5027744;28;20649;-56
2023/04/10 10:33:35;;;;;;;1999.90;999.90;;;14.90;99.90;;;;;;5027975;28;20241;-54
2023/04/10 10:36:04;;;;;;;1999.90;999.90;;;15.00;99.90;;;;;;5027693;28;20210;-54
2023/04/10 10:38:34;;;;;;;1999.90;999.90;;;15.00;99.90;;;;;;5028227;28;20214;-54
2023/04/10 10:41:10;;;;;;;1999.90;999.90;;;15.10;99.90;;;;;;5026298;28;20305;-54
2023/04/10 10:43:49;;;;;;;1999.90;999.90;;;15.20;99.90;;;;;;5027850;28;20253;-54
2023/04/10 10:46:23;;;;;;;1999.90;999.90;;;15.30;99.90;;;;;;5028098;28;20217;-55
2023/04/10 10:48:57;;;;;;;1999.90;999.90;;;15.40;99.90;;;;;;5031399;28;20689;-54
2023/04/10 10:51:43;;;;;;;1999.90;999.90;;;15.50;99.90;;;;;;5018562;28;20202;-54
2023/04/10 10:54:32;;;;;;;1999.90;999.90;;;15.40;99.90;;;;;;5030898;28;20264;-55
2023/04/10 10:57:05;;;;;;;1999.90;999.90;;;15.40;99.90;;;;;;5031547;28;20237;-55
2023/04/10 10:59:57;;;;;;;1999.90;999.90;;;15.40;99.90;;;;;;5031217;28;20264;-54
2023/04/10 11:02:25;;;;;;;1999.90;999.90;;;15.40;99.90;;;;;;5030948;28;20237;-54
2023/04/10 11:04:54;;;;;;;1999.90;999.90;;;15.50;99.90;;;;;;5031199;28;20896;-54
2023/04/10 11:07:22;;;;;;;1999.90;999.90;;;15.40;99.90;;;;;;5031386;28;20331;-54
2023/04/10 11:09:53;;;;;;;1999.90;999.90;;;15.50;99.90;;;;;;5030569;28;20285;-55
2023/04/10 11:12:23;;;;;;;1999.90;999.90;;;15.40;99.90;;;;;;5030789;28;20323;-54
2023/04/10 11:14:59;;;;;;;1999.90;999.90;;;15.30;99.90;;;;;;5027029;28;20230;-55
2023/04/10 11:17:47;;;;;;;1999.90;999.90;;;15.40;99.90;;;;;;5028570;28;20675;-54
2023/04/10 11:20:15;;;;;;;1999.90;999.90;;;15.60;99.90;;;;;;5026439;28;20289;-53
2023/04/10 11:23:10;;;;;;;1999.90;999.90;;;15.80;99.90;;;;;;5030589;28;20254;-54
2023/04/10 11:25:51;;;;;;;1999.90;999.90;;;15.80;99.90;;;;;;5030773;28;20213;-53
2023/04/10 11:28:40;;;;;;;1999.90;999.90;;;16.00;99.90;;;;;;5030500;28;20638;-54
2023/04/10 11:31:17;;;;;;;1999.90;999.90;;;15.70;99.90;;;;;;5026290;28;20289;-54
2023/04/10 11:33:46;;;;;;;1999.90;999.90;;;15.70;99.90;;;;;;5030585;28;20261;-58
2023/04/10 11:36:17;;;;;;;1999.90;999.90;;;15.60;99.90;;;;;;5030920;28;20210;-54
2023/04/10 11:38:55;;;;;;;1999.90;999.90;;;15.70;99.90;;;;;;5030121;28;20245;-53
2023/04/10 11:41:29;;;;;;;1999.90;999.90;;;15.90;99.90;;;;;;5030203;28;20312;-54
2023/04/10 11:43:58;;;;;;;1999.90;999.90;;;15.90;99.90;;;;;;5025621;28;20226;-55
2023/04/10 11:46:27;;;;;;;1999.90;999.90;;;15.90;99.90;;;;;;5030246;28;20668;-54
2023/04/10 11:48:58;;;;;;;1999.90;999.90;;;15.70;99.90;;;;;;5030068;28;20209;-52
2023/04/10 11:51:27;;;;;;;1999.90;999.90;;;15.80;99.90;;;;;;5030437;28;20726;-52
2023/04/10 11:54:06;;;;;;;1999.90;999.90;;;15.80;99.90;;;;;;5029986;28;20226;-54
2023/04/10 11:56:36;;;;;;;1999.90;999.90;;;15.80;99.90;;;;;;5029963;28;20239;-51
2023/04/10 11:59:06;;;;;;;1999.90;999.90;;;15.80;99.90;;;;;;5028886;28;20696;-54
2023/04/10 12:01:34;;;;;;;1999.90;999.90;;;15.90;99.90;;;;;;5022299;28;20232;-53
2023/04/10 12:04:03;;;;;;;1999.90;999.90;;;15.90;99.90;;;;;;5028658;28;20317;-53
2023/04/10 12:06:31;;;;;;;1999.90;999.90;;;15.90;99.90;;;;;;5030283;28;20206;-53
2023/04/10 12:08:59;;;;;;;1999.90;999.90;;;16.00;99.90;;;;;;5021296;28;20705;-54
2023/04/10 12:11:28;;;;;;;1999.90;999.90;;;16.10;99.90;;;;;;5015900;28;20780;-52
2023/04/10 12:13:58;;;;;;;1999.90;999.90;;;16.20;99.90;;;;;;5029844;28;20230;-54
2023/04/10 12:16:26;;;;;;;1999.90;999.90;;;16.10;99.90;;;;;;5029163;28;20229;-52
2023/04/10 12:18:55;;;;;;;1999.90;999.90;;;16.20;99.90;;;;;;5029910;28;20206;-54
2023/04/10 12:21:23;;;;;;;1999.90;999.90;;;16.30;99.90;;;;;;5030086;28;20233;-52
2023/04/10 12:23:51;;;;;;;1999.90;999.90;;;16.20;99.90;;;;;;5029569;28;20316;-52
2023/04/10 12:26:20;;;;;;;1999.90;999.90;;;16.10;99.90;;;;;;5029646;28;20692;-53
2023/04/10 12:28:53;;;;;;;1999.90;999.90;;;16.20;99.90;;;;;;5029704;28;20202;-53
2023/04/10 12:31:31;;;;;;;1999.90;999.90;;;16.10;99.90;;;;;;5028968;28;20202;-53